Fort Worth - NOAA's Hourly Summary for Tuesday, April 18, 2017
Hour Temp
(f)
RH
(%)
Solar Rad.
(MJ/m2)
Rainfall
(in)
Wind
(mph)
4/18/2017 12:00 AM 62 93 0 0 3.29
4/18/2017 1:00 AM 62 95 0 0 2.84
4/18/2017 2:00 AM 62 95 0 0 3.86
4/18/2017 3:00 AM 61 96 0 0 3.83
4/18/2017 4:00 AM 61 98 0 0 2.5
4/18/2017 5:00 AM 62 97 0 0 2.04
4/18/2017 6:00 AM 63 96 0 0 1.86
4/18/2017 7:00 AM 63 96 0.05 0 1.99
4/18/2017 8:00 AM 63 96 0.21 0 2.27
4/18/2017 9:00 AM 66 90 0.88 0 2.72
4/18/2017 10:00 AM 70 80 2.19 0 4.53
4/18/2017 11:00 AM 73 72 2.64 0 4.18
4/18/2017 12:00 PM 77 63 3.2 0 5.12
4/18/2017 1:00 PM 77 61 2.44 0 5.54
4/18/2017 2:00 PM 79 57 2.35 0 5.19
4/18/2017 3:00 PM 79 56 2.8 0 6.55
4/18/2017 4:00 PM 79 55 2.17 0 5.19
4/18/2017 5:00 PM 80 54 1.92 0 6.14
4/18/2017 6:00 PM 79 56 1.05 0 5.77
4/18/2017 7:00 PM 76 58 0.11 0 6.32
4/18/2017 8:00 PM 74 63 0.01 0 5.89
4/18/2017 9:00 PM 71 71 0 0 7.76
4/18/2017 10:00 PM 69 77 0 0 4.59
4/18/2017 11:00 PM 68 83 0 0 3.09
Data Summary 69 77 22.02 0.00 4.29